createdAt,value
2019-02-14T00:00:39.382Z,97148.46
2019-02-14T00:03:08.270Z,97146.33
2019-02-14T00:05:36.855Z,97157.50
2019-02-14T00:08:05.438Z,97153.08
2019-02-14T00:10:34.025Z,97161.14
2019-02-14T00:13:02.607Z,97160.13
2019-02-14T00:15:31.194Z,97154.41
2019-02-14T00:18:00.439Z,97161.41
2019-02-14T00:20:29.021Z,97156.98
2019-02-14T00:22:57.609Z,97153.48
2019-02-14T00:25:26.227Z,97152.83
2019-02-14T00:27:54.815Z,97151.30
2019-02-14T00:30:23.392Z,97148.90
2019-02-14T00:32:51.979Z,97151.82
2019-02-14T00:35:25.198Z,97148.44
2019-02-14T00:37:51.663Z,97152.56
2019-02-14T00:40:20.248Z,97150.62
2019-02-14T00:42:48.905Z,97146.66
2019-02-14T00:45:17.569Z,97145.86
2019-02-14T00:47:46.167Z,97148.16
2019-02-14T00:50:14.779Z,97139.80
2019-02-14T00:52:43.369Z,97152.02
2019-02-14T00:55:12.540Z,97149.57
2019-02-14T00:57:41.124Z,97145.24
2019-02-14T01:00:11.516Z,97148.45
2019-02-14T01:02:40.151Z,97146.55
2019-02-14T01:05:10.123Z,97149.36
2019-02-14T01:07:38.903Z,97149.92
2019-02-14T01:10:07.785Z,97150.78
2019-02-14T01:12:36.444Z,97150.16
2019-02-14T01:15:09.071Z,97146.66
2019-02-14T01:17:37.655Z,97150.43
2019-02-14T01:20:07.136Z,97153.08
2019-02-14T01:22:35.772Z,97148.05
2019-02-14T01:25:05.061Z,97153.55
2019-02-14T01:27:33.645Z,97152.37
2019-02-14T01:30:02.228Z,97155.64
2019-02-14T01:32:30.833Z,97161.05
2019-02-14T01:34:59.476Z,97159.98
2019-02-14T01:37:28.056Z,97164.55
2019-02-14T01:39:58.622Z,97165.70
2019-02-14T01:42:27.204Z,97162.85
2019-02-14T01:44:55.790Z,97163.69
2019-02-14T01:47:24.429Z,97163.01
2019-02-14T01:49:53.060Z,97154.97
2019-02-14T01:52:21.984Z,97157.39
2019-02-14T01:54:50.607Z,97149.77
2019-02-14T01:57:19.196Z,97153.61
2019-02-14T01:59:47.774Z,97146.62
2019-02-14T02:02:16.360Z,97146.72
2019-02-14T02:04:44.950Z,97148.05
2019-02-14T02:07:13.548Z,97141.88
2019-02-14T02:09:42.144Z,97150.72
2019-02-14T02:12:10.995Z,97145.44
2019-02-14T02:14:39.680Z,97151.86
2019-02-14T02:17:08.271Z,97153.05
2019-02-14T02:19:36.861Z,97152.94
2019-02-14T02:22:05.455Z,97150.41
2019-02-14T02:24:34.035Z,97153.68
2019-02-14T02:27:02.672Z,97158.81
2019-02-14T02:29:31.255Z,97152.25
2019-02-14T02:31:59.916Z,97152.39
2019-02-14T02:34:28.566Z,97149.91
2019-02-14T02:36:57.149Z,97152.78
2019-02-14T02:39:25.746Z,97152.78
2019-02-14T02:41:54.333Z,97151.16
2019-02-14T02:44:22.922Z,97150.50
2019-02-14T02:46:51.511Z,97152.14
2019-02-14T02:49:20.102Z,97155.14
2019-02-14T02:51:48.717Z,97149.91
2019-02-14T02:54:17.350Z,97148.84
2019-02-14T02:56:46.016Z,97156.64
2019-02-14T02:59:14.603Z,97152.39
2019-02-14T03:01:43.191Z,97150.66
2019-02-14T03:04:11.778Z,97150.80
2019-02-14T03:06:40.370Z,97151.16
2019-02-14T03:09:09.522Z,97155.07
2019-02-14T03:11:38.108Z,97154.96
2019-02-14T03:14:06.695Z,97160.27
2019-02-14T03:16:35.384Z,97162.12
2019-02-14T03:19:03.970Z,97158.03
2019-02-14T03:21:32.560Z,97156.34
2019-02-14T03:24:01.143Z,97163.05
2019-02-14T03:26:29.743Z,97154.34
2019-02-14T03:28:58.332Z,97164.14
2019-02-14T03:31:26.960Z,97159.77
2019-02-14T03:33:55.533Z,97157.45
2019-02-14T03:36:24.192Z,97163.68
2019-02-14T03:38:52.782Z,97161.12
2019-02-14T03:41:21.367Z,97159.48
2019-02-14T03:43:49.950Z,97162.59
2019-02-14T03:46:18.533Z,97165.84
2019-02-14T03:48:47.113Z,97159.06
2019-02-14T03:51:15.700Z,97160.91
2019-02-14T03:53:44.285Z,97164.28
2019-02-14T03:56:12.925Z,97160.61
2019-02-14T03:58:41.551Z,97158.13
2019-02-14T04:01:11.015Z,97158.99
2019-02-14T04:03:39.599Z,97158.23
2019-02-14T04:06:08.442Z,97156.20
2019-02-14T04:08:37.026Z,97156.70
2019-02-14T04:11:05.613Z,97160.80
2019-02-14T04:13:34.191Z,97161.55
2019-02-14T04:16:04.462Z,97157.67
2019-02-14T04:18:33.462Z,97159.98
2019-02-14T04:21:02.044Z,97154.28
2019-02-14T04:23:30.660Z,97156.81
2019-02-14T04:25:59.243Z,97152.58
2019-02-14T04:28:27.832Z,97156.75
2019-02-14T04:30:56.422Z,97154.54
2019-02-14T04:33:25.016Z,97155.50
2019-02-14T04:35:53.643Z,97160.70
2019-02-14T04:38:22.244Z,97163.36
2019-02-14T04:40:50.837Z,97166.45
2019-02-14T04:43:19.420Z,97168.55
2019-02-14T04:45:48.014Z,97168.69
2019-02-14T04:48:16.607Z,97164.09
2019-02-14T04:50:45.197Z,97169.31
2019-02-14T04:53:13.787Z,97165.11
2019-02-14T04:55:42.375Z,97167.55
2019-02-14T04:58:12.112Z,97163.14
2019-02-14T05:00:40.841Z,97156.73
2019-02-14T05:03:10.615Z,97152.44
2019-02-14T05:05:39.284Z,97151.87
2019-02-14T05:08:08.775Z,97149.36
2019-02-14T05:10:37.356Z,97147.87
2019-02-14T05:13:05.938Z,97145.72
2019-02-14T05:15:34.531Z,97145.31
2019-02-14T05:18:03.112Z,97149.16
2019-02-14T05:20:31.692Z,97147.53
2019-02-14T05:23:00.278Z,97141.69
2019-02-14T05:25:28.861Z,97143.02
2019-02-14T05:27:57.443Z,97140.18
2019-02-14T05:30:26.030Z,97143.82
2019-02-14T05:32:54.612Z,97140.64
2019-02-14T05:35:23.202Z,97136.72
2019-02-14T05:37:51.789Z,97139.11
2019-02-14T05:40:20.407Z,97143.97
2019-02-14T05:42:49.068Z,97149.22
2019-02-14T05:45:17.962Z,97141.35
2019-02-14T05:47:46.570Z,97141.20
2019-02-14T05:50:15.256Z,97139.08
2019-02-14T05:52:43.843Z,97136.28
2019-02-14T05:55:13.304Z,97143.52
2019-02-14T05:57:41.895Z,97141.62
2019-02-14T06:00:16.492Z,97144.41
2019-02-14T06:02:45.082Z,97143.46
2019-02-14T06:05:13.719Z,97146.89
2019-02-14T06:07:42.368Z,97141.53
2019-02-14T06:10:11.947Z,97140.64
2019-02-14T06:12:40.539Z,97150.23
2019-02-14T06:15:11.571Z,97145.31
2019-02-14T06:17:40.162Z,97144.74
2019-02-14T06:20:12.718Z,97145.10
2019-02-14T06:22:41.300Z,97146.53
2019-02-14T06:25:11.825Z,97149.81
2019-02-14T06:27:40.424Z,97148.17
2019-02-14T06:30:12.116Z,97142.75
2019-02-14T06:32:40.703Z,97144.18
2019-02-14T06:35:10.730Z,97146.38
2019-02-14T06:37:39.313Z,97146.05
2019-02-14T06:40:13.868Z,97149.52
2019-02-14T06:42:42.454Z,97154.38
2019-02-14T06:45:13.688Z,97153.66
2019-02-14T06:47:42.276Z,97157.52
2019-02-14T06:50:11.717Z,97157.22
2019-02-14T06:52:40.525Z,97162.53
2019-02-14T06:55:09.828Z,97157.91
2019-02-14T06:57:38.413Z,97161.91
2019-02-14T07:00:10.117Z,97165.50
2019-02-14T07:02:38.705Z,97159.30
2019-02-14T07:05:09.230Z,97160.69
2019-02-14T07:07:37.816Z,97158.22
2019-02-14T07:10:08.796Z,97167.45
2019-02-14T07:12:37.428Z,97169.50
2019-02-14T07:15:13.790Z,97170.73
2019-02-14T07:17:42.369Z,97165.98
2019-02-14T07:20:16.589Z,97168.95
2019-02-14T07:22:45.178Z,97169.09
2019-02-14T07:25:13.782Z,97164.40
2019-02-14T07:27:42.367Z,97162.53
2019-02-14T07:30:15.014Z,97161.62
2019-02-14T07:32:43.599Z,97168.33
2019-02-14T07:35:12.581Z,97168.27
2019-02-14T07:37:41.169Z,97165.67
2019-02-14T07:40:12.253Z,97167.59
2019-02-14T07:42:40.846Z,97169.31
2019-02-14T07:45:15.061Z,97167.00
2019-02-14T07:47:43.642Z,97164.19
2019-02-14T07:50:13.917Z,97166.86
2019-02-14T07:52:42.503Z,97165.87
2019-02-14T07:55:13.626Z,97165.40
2019-02-14T07:57:42.278Z,97163.19
2019-02-14T08:00:19.434Z,97172.89
2019-02-14T08:02:48.012Z,97164.32
2019-02-14T08:05:16.655Z,97165.97
2019-02-14T08:07:45.244Z,97166.97
2019-02-14T08:10:18.846Z,97159.72
2019-02-14T08:12:47.427Z,97169.22
2019-02-14T08:15:16.012Z,97162.83
2019-02-14T08:17:44.635Z,97169.82
2019-02-14T08:20:18.011Z,97162.42
2019-02-14T08:22:46.590Z,97164.06
2019-02-14T08:25:15.233Z,97168.13
2019-02-14T08:27:43.812Z,97166.45
2019-02-14T08:30:14.831Z,97171.22
2019-02-14T08:32:43.464Z,97164.09
2019-02-14T08:35:13.016Z,97164.31
2019-02-14T08:37:45.547Z,97163.47
2019-02-14T08:40:15.280Z,97166.30
2019-02-14T08:42:43.866Z,97172.33
2019-02-14T08:45:13.071Z,97168.83
2019-02-14T08:47:41.655Z,97165.93
2019-02-14T08:50:12.657Z,97165.69
2019-02-14T08:52:41.242Z,97168.48
2019-02-14T08:55:10.414Z,97171.28
2019-02-14T08:57:38.992Z,97168.97
2019-02-14T09:00:13.001Z,97159.67
2019-02-14T09:02:41.608Z,97167.86
2019-02-14T09:05:10.416Z,97161.10
2019-02-14T09:07:39.008Z,97164.72
2019-02-14T09:10:15.553Z,97168.39
2019-02-14T09:12:44.145Z,97165.25
2019-02-14T09:15:14.381Z,97162.12
2019-02-14T09:17:42.964Z,97167.39
2019-02-14T09:20:15.368Z,97164.84
2019-02-14T09:22:43.992Z,97168.00
2019-02-14T09:25:13.096Z,97161.23
2019-02-14T09:27:41.684Z,97154.67
2019-02-14T09:30:15.406Z,97154.55
2019-02-14T09:32:44.124Z,97150.09
2019-02-14T09:35:12.699Z,97155.94
2019-02-14T09:37:41.276Z,97159.08
2019-02-14T09:40:13.288Z,97157.30
2019-02-14T09:42:41.870Z,97156.60
2019-02-14T09:45:12.806Z,97157.64
2019-02-14T09:47:41.391Z,97159.27
2019-02-14T09:50:12.694Z,97161.59
2019-02-14T09:52:41.883Z,97161.79
2019-02-14T09:55:14.286Z,97161.98
2019-02-14T09:57:42.867Z,97160.45
2019-02-14T10:00:14.891Z,97160.45
2019-02-14T10:02:43.476Z,97162.66
2019-02-14T10:05:13.519Z,97156.98
2019-02-14T10:07:42.111Z,97158.94
2019-02-14T10:10:14.167Z,97159.28
2019-02-14T10:12:42.751Z,97159.46
2019-02-14T10:15:12.034Z,97154.25
2019-02-14T10:17:40.625Z,97157.78
2019-02-14T10:20:12.328Z,97158.98
2019-02-14T10:22:40.912Z,97157.83
2019-02-14T10:25:10.279Z,97156.09
2019-02-14T10:27:38.977Z,97153.17
2019-02-14T10:30:11.385Z,97149.39
2019-02-14T10:32:39.971Z,97155.06
2019-02-14T10:35:09.013Z,97144.17
2019-02-14T10:37:37.586Z,97151.58
2019-02-14T10:40:09.234Z,97152.33
2019-02-14T10:42:37.818Z,97150.24
2019-02-14T10:45:09.368Z,97147.16
2019-02-14T10:47:37.954Z,97151.53
2019-02-14T10:50:08.636Z,97142.29
2019-02-14T10:52:37.219Z,97146.41
2019-02-14T10:55:08.765Z,97146.18
2019-02-14T10:57:37.388Z,97142.78
2019-02-14T11:00:11.473Z,97144.95
2019-02-14T11:02:40.055Z,97144.98
2019-02-14T11:05:08.937Z,97143.48
2019-02-14T11:07:37.526Z,97145.66
2019-02-14T11:10:09.474Z,97141.22
2019-02-14T11:12:38.064Z,97132.88
2019-02-14T11:15:09.509Z,97128.42
2019-02-14T11:17:38.095Z,97124.48
2019-02-14T11:20:09.279Z,97126.57
2019-02-14T11:22:37.866Z,97114.98
2019-02-14T11:25:09.598Z,97112.39
2019-02-14T11:27:38.180Z,97104.19
2019-02-14T11:30:09.985Z,97106.55
2019-02-14T11:32:38.574Z,97108.12
2019-02-14T11:35:09.482Z,97095.45
2019-02-14T11:37:38.062Z,97094.95
2019-02-14T11:40:14.723Z,97089.61
2019-02-14T11:42:43.308Z,97084.00
2019-02-14T11:45:23.936Z,97081.07
2019-02-14T11:47:52.528Z,97073.30
2019-02-14T11:50:21.117Z,97068.30
2019-02-14T11:52:49.727Z,97062.22
2019-02-14T11:55:18.372Z,97053.34
2019-02-14T11:57:46.954Z,97056.30
2019-02-14T12:00:28.017Z,97047.43
2019-02-14T12:02:56.718Z,97048.36
2019-02-14T12:05:25.377Z,97043.78
2019-02-14T12:07:53.967Z,97041.93
2019-02-14T12:10:22.551Z,97039.61
2019-02-14T12:12:51.136Z,97035.03
2019-02-14T12:15:19.735Z,97031.14
2019-02-14T12:17:48.326Z,97023.63
2019-02-14T12:20:16.923Z,97028.86
2019-02-14T12:22:47.085Z,97028.97
2019-02-14T12:25:28.077Z,97016.53
2019-02-14T12:27:56.665Z,97018.07
2019-02-14T12:30:25.650Z,97010.45
2019-02-14T12:32:54.250Z,97012.19
2019-02-14T12:35:22.892Z,97009.66
2019-02-14T12:37:51.475Z,97008.47
2019-02-14T12:40:20.063Z,97010.00
2019-02-14T12:42:48.650Z,97005.45
2019-02-14T12:45:26.092Z,96999.01
2019-02-14T12:47:54.891Z,96999.62
2019-02-14T12:50:23.483Z,96994.48
2019-02-14T12:52:52.068Z,96991.59
2019-02-14T12:55:20.658Z,96994.84
2019-02-14T12:57:49.251Z,96989.47
2019-02-14T13:00:25.041Z,96977.28
2019-02-14T13:02:53.625Z,96978.59
2019-02-14T13:05:22.250Z,96971.79
2019-02-14T13:07:50.884Z,96977.50
2019-02-14T13:10:19.773Z,96966.95
2019-02-14T13:12:48.356Z,96961.09
2019-02-14T13:15:25.537Z,96955.20
2019-02-14T13:17:54.133Z,96955.23
2019-02-14T13:20:22.736Z,96952.95
2019-02-14T13:22:51.339Z,96948.38
2019-02-14T13:25:19.930Z,96949.02
2019-02-14T13:27:48.526Z,96946.70
2019-02-14T13:30:26.907Z,96940.19
2019-02-14T13:32:55.498Z,96941.01
2019-02-14T13:35:24.109Z,96933.34
2019-02-14T13:37:52.698Z,96936.73
2019-02-14T13:40:21.318Z,96932.59
2019-02-14T13:42:49.911Z,96925.24
2019-02-14T13:45:23.702Z,96927.70
2019-02-14T13:47:52.301Z,96927.70
2019-02-14T13:50:20.886Z,96926.43
2019-02-14T13:52:49.478Z,96921.57
2019-02-14T13:55:18.096Z,96916.27
2019-02-14T13:57:46.684Z,96913.11
2019-02-14T14:00:27.044Z,96912.50
2019-02-14T14:02:55.648Z,96908.36
2019-02-14T14:05:24.237Z,96911.98
2019-02-14T14:07:52.837Z,96911.09
2019-02-14T14:10:21.525Z,96916.37
2019-02-14T14:12:50.122Z,96906.36
2019-02-14T14:15:18.738Z,96893.34
2019-02-14T14:17:47.329Z,96896.77
2019-02-14T14:20:15.923Z,96893.06
2019-02-14T14:22:44.520Z,96893.52
2019-02-14T14:25:13.112Z,96893.00
2019-02-14T14:27:41.704Z,96886.32
2019-02-14T14:30:12.678Z,96886.36
2019-02-14T14:32:41.275Z,96882.90
2019-02-14T14:35:11.385Z,96879.34
2019-02-14T14:37:40.086Z,96884.31
2019-02-14T14:40:15.157Z,96877.95
2019-02-14T14:42:51.097Z,96876.83
2019-02-14T14:45:37.995Z,96875.42
2019-02-14T14:48:08.589Z,96868.42
2019-02-14T14:50:37.184Z,96862.37
2019-02-14T14:53:07.521Z,96857.96
2019-02-14T14:55:36.263Z,96857.96
2019-02-14T14:58:04.848Z,96856.56
2019-02-14T15:00:35.015Z,96847.63
2019-02-14T15:03:03.610Z,96849.52
2019-02-14T15:05:32.202Z,96844.17
2019-02-14T15:08:00.801Z,96846.41
2019-02-14T15:10:29.395Z,96845.86
2019-02-14T15:12:57.982Z,96837.06
2019-02-14T15:15:26.709Z,96849.20
2019-02-14T15:17:55.302Z,96844.09
2019-02-14T15:20:23.893Z,96848.33
2019-02-14T15:22:52.487Z,96848.33
2019-02-14T15:25:21.080Z,96834.97
2019-02-14T15:27:49.673Z,96834.59
2019-02-14T15:30:18.266Z,96837.27
2019-02-14T15:32:46.855Z,96831.97
2019-02-14T15:35:15.445Z,96830.50
2019-02-14T15:37:46.616Z,96830.84
2019-02-14T15:40:14.351Z,96837.78
2019-02-14T15:42:42.966Z,96828.47
2019-02-14T15:45:12.476Z,96832.10
2019-02-14T15:47:41.056Z,96828.45
2019-02-14T15:50:10.776Z,96828.59
2019-02-14T15:52:39.367Z,96821.83
2019-02-14T15:55:09.127Z,96822.19
2019-02-14T15:57:37.718Z,96821.98
2019-02-14T16:00:10.777Z,96819.61
2019-02-14T16:02:39.564Z,96815.48
2019-02-14T16:05:09.060Z,96807.08
2019-02-14T16:07:39.510Z,96808.88
2019-02-14T16:10:17.580Z,96810.78
2019-02-14T16:12:41.174Z,96803.62
2019-02-14T16:15:10.668Z,96803.23
2019-02-14T16:17:39.252Z,96800.00
2019-02-14T16:20:09.590Z,96799.98
2019-02-14T16:22:40.189Z,96798.88
2019-02-14T16:25:09.334Z,96799.33
2019-02-14T16:27:37.933Z,96790.69
2019-02-14T16:30:09.608Z,96792.00
2019-02-14T16:32:38.229Z,96776.84
2019-02-14T16:35:07.725Z,96782.74
2019-02-14T16:37:36.314Z,96779.70
2019-02-14T16:40:07.011Z,96785.98
2019-02-14T16:42:35.598Z,96785.98
2019-02-14T16:45:05.085Z,96791.41
2019-02-14T16:47:34.102Z,96795.50
2019-02-14T16:50:02.691Z,96796.56
2019-02-14T16:52:31.280Z,96805.03
2019-02-14T16:54:59.896Z,96796.16
2019-02-14T16:57:28.498Z,96800.16
2019-02-14T16:59:57.086Z,96798.50
2019-02-14T17:02:25.661Z,96797.41
2019-02-14T17:04:54.238Z,96797.97
2019-02-14T17:07:22.853Z,96795.31
2019-02-14T17:09:51.440Z,96803.27
2019-02-14T17:12:20.023Z,96802.22
2019-02-14T17:14:48.672Z,96801.72
2019-02-14T17:17:17.264Z,96793.95
2019-02-14T17:19:45.929Z,96799.16
2019-02-14T17:22:32.522Z,96801.08
2019-02-14T17:25:01.132Z,96806.64
2019-02-14T17:27:32.579Z,96809.53
2019-02-14T17:30:04.281Z,96813.46
2019-02-14T17:32:33.956Z,96818.78
2019-02-14T17:35:02.752Z,96818.95
2019-02-14T17:37:31.337Z,96822.87
2019-02-14T17:40:00.098Z,96818.00
2019-02-14T17:45:45.859Z,96819.19
2019-02-14T17:48:14.438Z,96822.77
2019-02-14T17:50:43.115Z,96824.20
2019-02-14T17:53:13.782Z,96822.31
2019-02-14T17:55:42.409Z,96821.25
2019-02-14T17:58:11.432Z,96824.59
2019-02-14T18:00:41.588Z,96825.27
2019-02-14T18:03:12.305Z,96826.56
2019-02-14T18:05:41.012Z,96820.35
2019-02-14T18:08:15.675Z,96831.13
2019-02-14T18:10:55.699Z,96831.59
2019-02-14T18:13:24.287Z,96838.53
2019-02-14T18:15:52.902Z,96847.16
2019-02-14T18:18:21.493Z,96824.38
2019-02-14T18:21:45.509Z,96838.63
2019-02-14T18:24:14.134Z,96835.25
2019-02-14T18:30:15.539Z,96836.03
2019-02-14T18:43:52.261Z,96826.38
2019-02-14T18:46:26.420Z,96834.84
2019-02-14T18:48:56.687Z,96828.19
2019-02-14T18:51:25.284Z,96827.53
2019-02-14T18:53:53.870Z,96827.59
2019-02-14T18:56:22.531Z,96829.69
2019-02-14T18:58:51.236Z,96830.16
2019-02-14T19:01:19.820Z,96828.25
2019-02-14T19:03:48.412Z,96828.72
2019-02-14T19:06:17.142Z,96828.78
2019-02-14T19:08:45.715Z,96827.27
2019-02-14T19:11:15.428Z,96826.09
2019-02-14T19:13:44.217Z,96831.14
2019-02-14T19:16:12.952Z,96820.79
2019-02-14T19:18:41.541Z,96819.39
2019-02-14T19:21:10.139Z,96827.19
2019-02-14T19:23:38.724Z,96823.68
2019-02-14T19:26:07.923Z,96825.59
2019-02-14T19:28:36.559Z,96817.56
2019-02-14T19:31:05.159Z,96817.56
2019-02-14T19:33:33.833Z,96825.38
2019-02-14T19:36:02.557Z,96819.20
2019-02-14T19:38:31.186Z,96810.80
2019-02-14T19:40:59.778Z,96819.73
2019-02-14T19:43:28.469Z,96818.34
2019-02-14T19:45:57.101Z,96823.13
2019-02-14T19:48:25.693Z,96827.09
2019-02-14T19:50:54.292Z,96822.78
2019-02-14T19:53:22.888Z,96821.63
2019-02-14T19:55:51.479Z,96822.30
2019-02-14T19:58:20.070Z,96821.05
2019-02-14T20:00:48.690Z,96826.31
2019-02-14T20:03:17.287Z,96822.15
2019-02-14T20:05:45.875Z,96822.74
2019-02-14T20:08:14.463Z,96827.39
2019-02-14T20:10:43.052Z,96821.84
2019-02-14T20:13:12.293Z,96822.69
2019-02-14T20:15:40.896Z,96824.41
2019-02-14T20:18:10.372Z,96831.70
2019-02-14T20:20:38.975Z,96830.55
2019-02-14T20:23:07.996Z,96833.90
2019-02-14T20:25:36.587Z,96828.11
2019-02-14T20:28:05.220Z,96835.23
2019-02-14T20:30:33.888Z,96827.55
2019-02-14T20:33:04.658Z,96831.56
2019-02-14T20:35:32.799Z,96834.14
2019-02-14T20:38:01.462Z,96833.95
2019-02-14T20:40:31.973Z,96828.86
2019-02-14T20:43:00.364Z,96827.45
2019-02-14T20:45:29.987Z,96834.38
2019-02-14T20:47:58.569Z,96830.48
2019-02-14T20:50:27.168Z,96830.48
2019-02-14T20:52:55.759Z,96835.79
2019-02-14T20:55:26.111Z,96838.36
2019-02-14T20:57:54.702Z,96836.88
2019-02-14T21:00:34.151Z,96835.19
2019-02-14T21:03:02.766Z,96837.34
2019-02-14T21:05:31.393Z,96843.98
2019-02-14T21:07:59.974Z,96842.59
2019-02-14T21:10:28.561Z,96837.67
2019-02-14T21:12:57.162Z,96841.75
2019-02-14T21:15:25.885Z,96849.42
2019-02-14T21:17:54.504Z,96844.77
2019-02-14T21:20:23.117Z,96850.75
2019-02-14T21:22:51.774Z,96850.75
2019-02-14T21:25:23.020Z,96854.83
2019-02-14T21:27:50.675Z,96844.42
2019-02-14T21:30:20.684Z,96845.25
2019-02-14T21:32:49.630Z,96841.98
2019-02-14T21:35:18.249Z,96850.13
2019-02-14T21:37:47.131Z,96854.20
2019-02-14T21:40:19.879Z,96854.73
2019-02-14T21:42:48.860Z,96854.77
2019-02-14T21:45:18.293Z,96848.77
2019-02-14T21:47:47.071Z,96852.52
2019-02-14T21:50:16.147Z,96851.03
2019-02-14T21:52:44.765Z,96852.03
2019-02-14T21:55:14.297Z,96850.67
2019-02-14T21:57:42.981Z,96845.78
2019-02-14T22:00:18.329Z,96850.67
2019-02-14T22:02:46.928Z,96852.05
2019-02-14T22:05:15.521Z,96858.63
2019-02-14T22:07:44.194Z,96856.23
2019-02-14T22:10:13.725Z,96851.63
2019-02-14T22:12:43.445Z,96851.61
2019-02-14T22:15:18.730Z,96855.47
2019-02-14T22:17:47.413Z,96858.39
2019-02-14T22:20:16.046Z,96859.50
2019-02-14T22:22:44.652Z,96852.55
2019-02-14T22:25:13.274Z,96846.48
2019-02-14T22:27:41.862Z,96854.59
2019-02-14T22:30:14.090Z,96856.23
2019-02-14T22:32:42.685Z,96851.68
2019-02-14T22:35:11.755Z,96846.11
2019-02-14T22:37:40.385Z,96843.88
2019-02-14T22:40:10.804Z,96841.80
2019-02-14T22:42:46.710Z,96838.53
2019-02-14T22:45:13.441Z,96839.32
2019-02-14T22:47:41.807Z,96841.77
2019-02-14T22:50:10.838Z,96839.22
2019-02-14T22:52:39.436Z,96844.29
2019-02-14T22:55:10.478Z,96847.47
2019-02-14T22:57:39.110Z,96847.21
2019-02-14T23:00:13.394Z,96846.37
2019-02-14T23:02:41.983Z,96845.31
2019-02-14T23:05:11.700Z,96846.86
2019-02-14T23:07:40.284Z,96849.05
2019-02-14T23:10:10.103Z,96849.27
2019-02-14T23:12:38.689Z,96854.80
2019-02-14T23:15:08.177Z,96857.02
2019-02-14T23:17:36.765Z,96862.67
2019-02-14T23:20:06.679Z,96857.94
2019-02-14T23:22:35.268Z,96854.52
2019-02-14T23:25:04.261Z,96854.52
2019-02-14T23:27:32.847Z,96850.05
2019-02-14T23:30:02.485Z,96855.36
2019-02-14T23:32:31.133Z,96857.77
2019-02-14T23:34:59.732Z,96860.00
2019-02-14T23:37:28.361Z,96854.77
2019-02-14T23:39:56.985Z,96855.93
2019-02-14T23:42:25.658Z,96854.05
2019-02-14T23:44:54.274Z,96854.30
2019-02-14T23:47:22.861Z,96855.93
2019-02-14T23:49:51.443Z,96860.22
2019-02-14T23:52:20.034Z,96859.70
2019-02-14T23:54:48.627Z,96863.73
2019-02-14T23:57:17.208Z,96854.77
2019-02-14T23:59:45.794Z,96857.47
